createdAt,value
2023-03-28T00:00:11.792Z,90.01
2023-03-28T00:01:11.808Z,90.01
2023-03-28T00:02:11.999Z,90.01
2023-03-28T00:03:11.800Z,90.12
2023-03-28T00:04:11.880Z,90.22
2023-03-28T00:05:12.041Z,90.22
2023-03-28T00:06:11.903Z,90.22
2023-03-28T00:07:11.704Z,90.33
2023-03-28T00:08:11.880Z,90.44
2023-03-28T00:09:11.669Z,90.44
2023-03-28T00:10:11.676Z,90.54
2023-03-28T00:11:11.669Z,90.64
2023-03-28T00:12:11.940Z,90.54
2023-03-28T00:13:11.634Z,90.54
2023-03-28T00:14:11.676Z,90.64
2023-03-28T00:15:11.671Z,90.64
2023-03-28T00:16:11.725Z,90.75
2023-03-28T00:17:11.635Z,90.75
2023-03-28T00:18:11.636Z,90.64
2023-03-28T00:19:11.896Z,90.64
2023-03-28T00:20:11.632Z,90.64
2023-03-28T00:21:11.550Z,90.54
2023-03-28T00:22:11.551Z,90.54
2023-03-28T00:23:11.523Z,90.64
2023-03-28T00:24:11.529Z,90.64
2023-03-28T00:25:11.514Z,90.64
2023-03-28T00:26:11.852Z,90.54
2023-03-28T00:27:11.505Z,90.44
2023-03-28T00:28:11.486Z,90.44
2023-03-28T00:29:11.463Z,90.44
2023-03-28T00:30:11.473Z,90.33
2023-03-28T00:31:11.538Z,90.12
2023-03-28T00:32:11.470Z,90.12
2023-03-28T00:33:11.751Z,90.12
2023-03-28T00:34:11.433Z,90.01
2023-03-28T00:35:11.406Z,90.01
2023-03-28T00:36:11.400Z,90.01
2023-03-28T00:37:11.381Z,90.01
2023-03-28T00:38:11.425Z,90.01
2023-03-28T00:39:11.396Z,90.01
2023-03-28T00:40:11.364Z,90.01
2023-03-28T00:41:11.343Z,90.12
2023-03-28T00:42:11.339Z,90.12
2023-03-28T00:43:11.313Z,90.22
2023-03-28T00:44:11.632Z,90.22
2023-03-28T00:45:11.304Z,90.22
2023-03-28T00:46:11.500Z,90.22
2023-03-28T00:47:11.276Z,90.22
2023-03-28T00:48:14.612Z,90.33
2023-03-28T00:49:11.266Z,90.33
2023-03-28T00:50:11.574Z,90.44
2023-03-28T00:51:11.238Z,90.58
2023-03-28T00:52:11.236Z,90.58
2023-03-28T00:53:11.217Z,90.68
2023-03-28T00:54:11.229Z,90.68
2023-03-28T00:55:11.201Z,90.79
2023-03-28T00:56:11.527Z,90.79
2023-03-28T00:57:11.325Z,91.00
2023-03-28T00:58:11.174Z,91.10
2023-03-28T00:59:11.165Z,91.20
2023-03-28T01:00:11.142Z,91.20
2023-03-28T01:01:11.171Z,91.31
2023-03-28T01:02:11.179Z,91.31
2023-03-28T01:03:11.460Z,91.41
2023-03-28T01:04:11.096Z,91.52
2023-03-28T01:05:11.130Z,91.62
2023-03-28T01:06:11.089Z,91.62
2023-03-28T01:07:11.082Z,91.62
2023-03-28T01:08:11.092Z,91.72
2023-03-28T01:09:11.075Z,91.97
2023-03-28T01:10:11.320Z,92.08
2023-03-28T01:11:11.031Z,92.18
2023-03-28T01:12:11.039Z,92.18
2023-03-28T01:13:11.003Z,92.29
2023-03-28T01:14:11.020Z,92.50
2023-03-28T01:15:11.032Z,92.60
2023-03-28T01:16:11.011Z,92.71
2023-03-28T01:17:11.284Z,92.71
2023-03-28T01:18:10.958Z,92.81
2023-03-28T01:19:10.965Z,92.81
2023-03-28T01:20:10.983Z,92.91
2023-03-28T01:21:10.925Z,93.02
2023-03-28T01:22:10.924Z,93.02
2023-03-28T01:23:10.895Z,93.12
2023-03-28T01:24:12.523Z,93.23
2023-03-28T01:25:10.885Z,93.33
2023-03-28T01:26:10.955Z,93.44
2023-03-28T01:27:10.877Z,93.44
2023-03-28T01:28:10.841Z,93.54
2023-03-28T01:29:10.843Z,93.69
2023-03-28T01:30:10.848Z,93.79
2023-03-28T01:31:11.165Z,93.90
2023-03-28T01:32:10.880Z,93.90
2023-03-28T01:33:10.838Z,94.00
2023-03-28T01:34:10.776Z,94.10
2023-03-28T01:35:10.783Z,94.10
2023-03-28T01:36:10.797Z,94.21
2023-03-28T01:37:10.761Z,94.21
2023-03-28T01:38:11.092Z,94.31
2023-03-28T01:39:10.727Z,94.31
2023-03-28T01:40:10.731Z,94.52
2023-03-28T01:41:10.719Z,94.63
2023-03-28T01:42:10.701Z,94.73
2023-03-28T01:43:10.693Z,94.73
2023-03-28T01:44:10.759Z,94.84
2023-03-28T01:45:11.008Z,94.84
2023-03-28T01:46:10.761Z,94.94
2023-03-28T01:47:10.669Z,95.04
2023-03-28T01:48:10.627Z,95.04
2023-03-28T01:49:10.634Z,95.15
2023-03-28T01:50:10.713Z,95.25
2023-03-28T01:51:10.625Z,95.36
2023-03-28T01:52:10.587Z,95.56
2023-03-28T01:53:10.597Z,95.67
2023-03-28T01:54:10.568Z,95.67
2023-03-28T01:55:10.572Z,95.56
2023-03-28T01:56:11.345Z,95.67
2023-03-28T01:57:10.742Z,95.67
2023-03-28T01:58:10.845Z,95.67
2023-03-28T01:59:10.545Z,95.67
2023-03-28T02:00:10.533Z,95.67
2023-03-28T02:01:10.529Z,95.78
2023-03-28T02:02:10.553Z,95.78
2023-03-28T02:03:10.613Z,95.88
2023-03-28T02:04:20.721Z,96.03
2023-03-28T02:05:10.521Z,95.98
2023-03-28T02:06:10.464Z,96.09
2023-03-28T02:07:10.443Z,96.09
2023-03-28T02:08:10.484Z,96.13
2023-03-28T02:09:10.428Z,96.13
2023-03-28T02:10:10.421Z,96.23
2023-03-28T02:11:10.741Z,96.09
2023-03-28T02:12:10.392Z,96.09
2023-03-28T02:13:10.382Z,96.13
2023-03-28T02:14:10.403Z,96.09
2023-03-28T02:15:10.374Z,95.98
2023-03-28T02:16:10.396Z,95.98
2023-03-28T02:17:10.360Z,96.03
2023-03-28T02:18:10.371Z,96.09
2023-03-28T02:19:10.347Z,95.98
2023-03-28T02:20:10.385Z,96.09
2023-03-28T02:21:10.304Z,95.98
2023-03-28T02:22:10.298Z,95.98
2023-03-28T02:23:10.583Z,96.03
2023-03-28T02:24:10.263Z,96.03
2023-03-28T02:25:10.320Z,96.13
2023-03-28T02:26:11.017Z,96.13
2023-03-28T02:27:10.256Z,96.13
2023-03-28T02:28:10.266Z,96.13
2023-03-28T02:29:10.271Z,96.23
2023-03-28T02:30:10.221Z,96.23
2023-03-28T02:31:10.244Z,96.34
2023-03-28T02:32:10.264Z,96.23
2023-03-28T02:33:10.166Z,96.23
2023-03-28T02:34:10.166Z,96.34
2023-03-28T02:35:10.164Z,96.44
2023-03-28T02:36:10.140Z,96.34
2023-03-28T02:37:10.138Z,96.34
2023-03-28T02:38:10.172Z,96.34
2023-03-28T02:39:10.128Z,96.34
2023-03-28T02:40:10.145Z,96.23
2023-03-28T02:41:10.997Z,96.34
2023-03-28T02:42:10.077Z,96.34
2023-03-28T02:43:10.092Z,96.34
2023-03-28T02:44:10.113Z,96.44
2023-03-28T02:45:10.081Z,96.44
2023-03-28T02:46:10.077Z,96.44
2023-03-28T02:47:10.083Z,96.44
2023-03-28T02:48:10.324Z,96.44
2023-03-28T02:49:10.032Z,96.44
2023-03-28T02:50:10.073Z,96.55
2023-03-28T02:51:10.014Z,96.55
2023-03-28T02:52:09.992Z,96.66
2023-03-28T02:53:09.982Z,96.66
2023-03-28T02:54:09.976Z,96.76
2023-03-28T02:55:10.258Z,96.76
2023-03-28T02:56:10.497Z,96.86
2023-03-28T02:57:09.977Z,96.97
2023-03-28T02:58:09.925Z,97.07
2023-03-28T02:59:09.914Z,97.07
2023-03-28T03:00:09.920Z,97.22
2023-03-28T03:01:09.907Z,97.32
2023-03-28T03:02:10.261Z,97.43
2023-03-28T03:03:09.889Z,97.53
2023-03-28T03:04:09.909Z,97.64
2023-03-28T03:05:09.866Z,97.74
2023-03-28T03:06:09.849Z,97.74
2023-03-28T03:07:09.849Z,97.74
2023-03-28T03:08:09.853Z,97.85
2023-03-28T03:09:10.089Z,97.95
2023-03-28T03:10:09.828Z,98.05
2023-03-28T03:11:09.798Z,98.05
2023-03-28T03:12:09.783Z,97.95
2023-03-28T03:13:09.789Z,98.05
2023-03-28T03:14:09.827Z,98.05
2023-03-28T03:15:09.752Z,98.16
2023-03-28T03:16:10.054Z,98.16
2023-03-28T03:17:09.738Z,98.16
2023-03-28T03:18:09.783Z,98.26
2023-03-28T03:19:09.707Z,98.16
2023-03-28T03:20:09.741Z,98.37
2023-03-28T03:21:09.697Z,98.37
2023-03-28T03:22:09.681Z,98.37
2023-03-28T03:23:09.689Z,98.47
2023-03-28T03:24:09.684Z,98.58
2023-03-28T03:25:10.636Z,98.58
2023-03-28T03:26:09.684Z,98.68
2023-03-28T03:27:09.660Z,98.58
2023-03-28T03:28:09.623Z,98.58
2023-03-28T03:29:09.905Z,98.58
2023-03-28T03:30:09.643Z,98.47
2023-03-28T03:31:09.619Z,98.37
2023-03-28T03:32:09.629Z,98.26
2023-03-28T03:33:09.562Z,98.11
2023-03-28T03:34:09.569Z,98.11
2023-03-28T03:35:09.549Z,98.01
2023-03-28T03:36:09.886Z,97.91
2023-03-28T03:37:09.534Z,97.80
2023-03-28T03:38:09.550Z,97.80
2023-03-28T03:39:09.502Z,97.80
2023-03-28T03:40:09.544Z,97.70
2023-03-28T03:41:09.481Z,97.70
2023-03-28T03:42:09.468Z,97.70
2023-03-28T03:43:09.469Z,97.70
2023-03-28T03:44:09.487Z,97.59
2023-03-28T03:45:09.445Z,97.59
2023-03-28T03:46:09.487Z,97.49
2023-03-28T03:47:09.429Z,97.49
2023-03-28T03:48:09.718Z,97.49
2023-03-28T03:49:09.403Z,97.38
2023-03-28T03:50:09.459Z,97.49
2023-03-28T03:51:09.472Z,97.49
2023-03-28T03:52:09.365Z,97.49
2023-03-28T03:53:09.355Z,97.49
2023-03-28T03:54:09.328Z,97.38
2023-03-28T03:55:09.338Z,97.28
2023-03-28T03:56:09.359Z,97.28
2023-03-28T03:57:09.427Z,97.28
2023-03-28T03:58:09.311Z,97.38
2023-03-28T03:59:09.304Z,97.38
2023-03-28T04:00:09.275Z,97.38
2023-03-28T04:01:09.267Z,97.59
2023-03-28T04:02:09.362Z,97.64
2023-03-28T04:03:09.312Z,97.74
2023-03-28T04:04:09.271Z,97.74
2023-03-28T04:05:09.275Z,97.74
2023-03-28T04:06:09.500Z,97.74
2023-03-28T04:07:09.202Z,97.74
2023-03-28T04:08:09.256Z,97.74
2023-03-28T04:09:09.225Z,97.74
2023-03-28T04:10:09.205Z,97.74
2023-03-28T04:11:09.168Z,97.74
2023-03-28T04:12:09.167Z,97.85
2023-03-28T04:13:09.449Z,97.85
2023-03-28T04:14:09.166Z,97.95
2023-03-28T04:15:09.119Z,97.85
2023-03-28T04:16:09.173Z,97.85
2023-03-28T04:17:09.109Z,97.85
2023-03-28T04:18:09.746Z,97.85
2023-03-28T04:19:09.076Z,97.95
2023-03-28T04:20:09.389Z,97.95
2023-03-28T04:21:09.057Z,97.95
2023-03-28T04:22:09.074Z,97.95
2023-03-28T04:23:09.052Z,97.95
2023-03-28T04:24:09.064Z,97.95
2023-03-28T04:25:09.051Z,98.05
2023-03-28T04:26:09.068Z,98.05
2023-03-28T04:27:09.303Z,98.05
2023-03-28T04:28:08.984Z,98.05
2023-03-28T04:29:08.978Z,98.05
2023-03-28T04:30:08.967Z,98.05
2023-03-28T04:31:08.990Z,98.05
2023-03-28T04:32:08.984Z,98.16
2023-03-28T04:33:08.986Z,98.05
2023-03-28T04:34:09.246Z,98.16
2023-03-28T04:35:08.927Z,98.16
2023-03-28T04:36:08.945Z,98.16
2023-03-28T04:37:08.902Z,98.16
2023-03-28T04:38:08.926Z,98.37
2023-03-28T04:39:08.880Z,98.37
2023-03-28T04:40:08.887Z,98.37
2023-03-28T04:41:09.615Z,98.47
2023-03-28T04:42:08.892Z,98.47
2023-03-28T04:43:08.858Z,98.37
2023-03-28T04:44:08.859Z,98.37
2023-03-28T04:45:08.813Z,98.37
2023-03-28T04:46:08.861Z,98.37
2023-03-28T04:47:08.835Z,98.37
2023-03-28T04:48:09.065Z,98.37
2023-03-28T04:49:08.783Z,98.37
2023-03-28T04:50:08.833Z,98.37
2023-03-28T04:51:08.829Z,98.37
2023-03-28T04:52:08.787Z,98.37
2023-03-28T04:53:08.865Z,98.47
2023-03-28T04:54:08.718Z,98.52
2023-03-28T04:55:08.723Z,98.52
2023-03-28T04:56:08.758Z,98.62
2023-03-28T04:57:08.754Z,98.72
2023-03-28T04:58:08.679Z,98.83
2023-03-28T04:59:08.682Z,98.93
2023-03-28T05:00:08.677Z,98.93
2023-03-28T05:01:08.975Z,99.04
2023-03-28T05:02:08.791Z,99.15
2023-03-28T05:03:10.871Z,99.25
2023-03-28T05:04:08.621Z,99.35
2023-03-28T05:05:08.631Z,99.46
2023-03-28T05:06:08.647Z,99.61
2023-03-28T05:07:08.617Z,99.71
2023-03-28T05:08:08.931Z,99.77
2023-03-28T05:09:08.572Z,99.82
2023-03-28T05:10:08.578Z,99.82
2023-03-28T05:11:08.559Z,99.92
2023-03-28T05:12:08.583Z,99.92
2023-03-28T05:13:08.536Z,99.92
2023-03-28T05:14:08.550Z,99.92
2023-03-28T05:15:08.800Z,99.99
2023-03-28T05:16:08.577Z,99.99
2023-03-28T05:17:08.470Z,99.99
2023-03-28T05:18:08.766Z,99.99
2023-03-28T05:19:08.467Z,99.99
2023-03-28T05:20:08.523Z,99.99
2023-03-28T05:21:09.431Z,99.99
2023-03-28T05:22:08.430Z,99.99
2023-03-28T05:23:08.410Z,99.99
2023-03-28T05:24:08.420Z,99.99
2023-03-28T05:25:08.394Z,99.99
2023-03-28T05:26:08.503Z,99.99
2023-03-28T05:27:08.382Z,99.99
2023-03-28T05:28:08.657Z,99.99
2023-03-28T05:29:08.365Z,99.99
2023-03-28T05:30:08.426Z,99.99
2023-03-28T05:31:08.358Z,99.99
2023-03-28T05:32:08.448Z,99.99
2023-03-28T05:33:08.364Z,99.99
2023-03-28T05:34:08.327Z,99.99
2023-03-28T05:35:08.335Z,99.99
2023-03-28T05:36:08.344Z,99.98
2023-03-28T05:37:08.277Z,99.88
2023-03-28T05:38:08.364Z,99.77
2023-03-28T05:39:08.285Z,99.77
2023-03-28T05:40:08.537Z,99.66
2023-03-28T05:41:08.229Z,99.56
2023-03-28T05:42:08.243Z,99.56
2023-03-28T05:43:08.271Z,99.66
2023-03-28T05:44:08.256Z,99.62
2023-03-28T05:45:08.208Z,99.41
2023-03-28T05:46:08.270Z,98.63
2023-03-28T05:47:08.172Z,98.01
2023-03-28T05:48:08.219Z,97.70
2023-03-28T05:49:08.150Z,96.82
2023-03-28T05:50:08.204Z,96.30
2023-03-28T05:51:08.182Z,96.13
2023-03-28T05:52:08.165Z,96.34
2023-03-28T05:53:08.151Z,96.66
2023-03-28T05:54:08.111Z,96.91
2023-03-28T05:55:08.129Z,97.11
2023-03-28T05:56:08.158Z,97.22
2023-03-28T05:57:08.184Z,97.32
2023-03-28T05:58:08.372Z,97.64
2023-03-28T05:59:08.083Z,97.53
2023-03-28T06:00:08.082Z,97.49
2023-03-28T06:01:08.032Z,97.43
2023-03-28T06:02:08.066Z,97.38
2023-03-28T06:03:08.380Z,97.49
2023-03-28T06:04:08.093Z,97.44
2023-03-28T06:05:08.440Z,96.46
2023-03-28T06:06:08.008Z,95.06
2023-03-28T06:07:07.954Z,94.02
2023-03-28T06:08:07.992Z,93.14
2023-03-28T06:09:07.958Z,92.72
2023-03-28T06:10:07.989Z,92.62
2023-03-28T06:11:07.925Z,92.41
2023-03-28T06:12:07.949Z,92.31
2023-03-28T06:13:07.917Z,92.41
2023-03-28T06:14:07.943Z,92.27
2023-03-28T06:15:07.883Z,91.96
2023-03-28T06:16:07.887Z,91.64
2023-03-28T06:17:08.046Z,90.97
2023-03-28T06:18:08.249Z,90.66
2023-03-28T06:19:17.775Z,90.14
2023-03-28T06:20:08.022Z,90.56
2023-03-28T06:21:07.837Z,90.77
2023-03-28T06:22:07.869Z,90.87
2023-03-28T06:23:07.790Z,90.41
2023-03-28T06:24:07.785Z,89.79
2023-03-28T06:25:07.775Z,89.58
2023-03-28T06:26:07.799Z,89.17
2023-03-28T06:27:07.838Z,89.31
2023-03-28T06:28:07.751Z,89.73
2023-03-28T06:29:07.747Z,90.19
2023-03-28T06:30:08.088Z,90.81
2023-03-28T06:31:07.784Z,91.27
2023-03-28T06:32:07.802Z,91.58
2023-03-28T06:33:07.820Z,91.78
2023-03-28T06:34:07.715Z,92.00
2023-03-28T06:35:07.675Z,92.10
2023-03-28T06:36:07.764Z,92.21
2023-03-28T06:37:07.673Z,92.41
2023-03-28T06:38:07.764Z,92.52
2023-03-28T06:39:07.644Z,92.52
2023-03-28T06:40:07.640Z,92.62
2023-03-28T06:41:07.652Z,92.72
2023-03-28T06:42:07.643Z,92.68
2023-03-28T06:43:07.585Z,92.37
2023-03-28T06:44:07.639Z,92.02
2023-03-28T06:45:07.605Z,91.35
2023-03-28T06:46:07.657Z,90.62
2023-03-28T06:47:07.556Z,90.26
2023-03-28T06:48:07.604Z,89.81
2023-03-28T06:49:07.538Z,88.77
2023-03-28T06:50:07.736Z,88.25
2023-03-28T06:51:07.525Z,87.94
2023-03-28T06:52:07.498Z,87.90
2023-03-28T06:53:07.497Z,87.48
2023-03-28T06:54:07.785Z,87.27
2023-03-28T06:55:07.460Z,86.93
2023-03-28T06:56:07.492Z,86.78
2023-03-28T06:57:07.512Z,86.43
2023-03-28T06:58:07.509Z,85.50
2023-03-28T06:59:07.455Z,84.31
2023-03-28T07:00:07.486Z,83.97
2023-03-28T07:01:07.735Z,83.20
2023-03-28T07:02:07.529Z,82.89
2023-03-28T07:03:08.192Z,82.34
2023-03-28T07:04:07.444Z,81.68
2023-03-28T07:05:07.394Z,81.05
2023-03-28T07:06:07.355Z,80.85
2023-03-28T07:07:07.355Z,81.16
2023-03-28T07:08:07.719Z,80.95
2023-03-28T07:09:07.352Z,80.64
2023-03-28T07:10:07.444Z,80.78
2023-03-28T07:11:07.326Z,81.51
2023-03-28T07:12:07.298Z,81.68
2023-03-28T07:13:07.294Z,81.37
2023-03-28T07:14:07.388Z,81.57
2023-03-28T07:15:07.578Z,80.91
2023-03-28T07:16:07.308Z,81.05
2023-03-28T07:17:07.235Z,81.37
2023-03-28T07:18:07.331Z,81.57
2023-03-28T07:19:07.228Z,82.03
2023-03-28T07:20:07.266Z,82.65
2023-03-28T07:21:07.466Z,82.95
2023-03-28T07:22:07.470Z,82.71
2023-03-28T07:23:07.242Z,82.19
2023-03-28T07:24:07.177Z,82.36
2023-03-28T07:25:07.196Z,81.33
2023-03-28T07:26:07.290Z,80.81
2023-03-28T07:27:15.709Z,79.88
2023-03-28T07:28:07.140Z,79.67
2023-03-28T07:29:07.463Z,79.36
2023-03-28T07:30:07.181Z,79.05
2023-03-28T07:31:07.118Z,79.09
2023-03-28T07:32:07.181Z,79.91
2023-03-28T07:33:18.452Z,80.12
2023-03-28T07:34:07.139Z,80.54
2023-03-28T07:35:07.053Z,80.43
2023-03-28T07:36:07.101Z,81.30
2023-03-28T07:37:07.058Z,81.30
2023-03-28T07:38:07.061Z,81.51
2023-03-28T07:39:07.034Z,82.23
2023-03-28T07:40:07.020Z,82.44
2023-03-28T07:41:07.377Z,82.44
2023-03-28T07:42:07.005Z,82.23
2023-03-28T07:43:06.963Z,82.34
2023-03-28T07:44:07.026Z,81.92
2023-03-28T07:45:06.989Z,82.03
2023-03-28T07:46:06.986Z,82.09
2023-03-28T07:47:06.977Z,81.47
2023-03-28T07:48:06.999Z,81.82
2023-03-28T07:49:06.890Z,82.03
2023-03-28T07:50:07.001Z,81.85
2023-03-28T07:51:06.880Z,82.27
2023-03-28T07:52:07.561Z,82.58
2023-03-28T07:53:07.007Z,83.00
2023-03-28T07:54:06.942Z,83.00
2023-03-28T07:55:06.924Z,82.37
2023-03-28T07:56:06.888Z,82.17
2023-03-28T07:57:06.927Z,82.68
2023-03-28T07:58:06.810Z,82.68
2023-03-28T07:59:06.790Z,82.58
2023-03-28T08:00:06.823Z,82.48
2023-03-28T08:01:06.800Z,82.68
2023-03-28T08:02:06.844Z,82.89
2023-03-28T08:03:06.885Z,82.89
2023-03-28T08:04:06.948Z,82.58
2023-03-28T08:05:07.094Z,82.37
2023-03-28T08:06:16.588Z,82.58
2023-03-28T08:07:06.707Z,82.37
2023-03-28T08:08:06.790Z,82.58
2023-03-28T08:09:06.744Z,82.48
2023-03-28T08:10:06.719Z,82.79
2023-03-28T08:11:06.771Z,82.65
2023-03-28T08:12:07.101Z,82.65
2023-03-28T08:13:06.720Z,82.34
2023-03-28T08:14:06.723Z,82.09
2023-03-28T08:15:06.654Z,81.99
2023-03-28T08:16:06.682Z,81.57
2023-03-28T08:17:06.597Z,81.23
2023-03-28T08:18:06.615Z,80.60
2023-03-28T08:19:11.316Z,80.50
2023-03-28T08:20:06.686Z,80.50
2023-03-28T08:21:06.596Z,80.08
2023-03-28T08:22:06.553Z,79.47
2023-03-28T08:23:06.558Z,79.77
2023-03-28T08:24:06.541Z,79.57
2023-03-28T08:25:06.862Z,79.53
2023-03-28T08:26:06.562Z,79.43
2023-03-28T08:27:06.598Z,79.29
2023-03-28T08:28:06.574Z,78.67
2023-03-28T08:29:06.516Z,78.36
2023-03-28T08:30:06.525Z,78.36
2023-03-28T08:31:06.600Z,77.91
2023-03-28T08:32:06.510Z,77.46
2023-03-28T08:33:06.516Z,75.95
2023-03-28T08:34:06.443Z,74.12
2023-03-28T08:35:06.468Z,72.64
2023-03-28T08:36:06.441Z,71.55
2023-03-28T08:37:06.738Z,70.18
2023-03-28T08:38:08.591Z,68.98
2023-03-28T08:39:06.396Z,68.13
2023-03-28T08:40:06.460Z,67.48
2023-03-28T08:41:06.359Z,66.66
2023-03-28T08:42:06.438Z,66.55
2023-03-28T08:43:06.343Z,66.04
2023-03-28T08:44:06.355Z,65.83
2023-03-28T08:45:06.345Z,65.05
2023-03-28T08:46:06.330Z,65.77
2023-03-28T08:47:06.307Z,65.94
2023-03-28T08:48:06.331Z,65.83
2023-03-28T08:49:06.635Z,66.04
2023-03-28T08:50:06.342Z,65.83
2023-03-28T08:51:06.230Z,64.91
2023-03-28T08:52:06.281Z,65.01
2023-03-28T08:53:06.394Z,64.47
2023-03-28T08:54:06.248Z,64.67
2023-03-28T08:55:06.318Z,64.06
2023-03-28T08:56:06.584Z,63.65
2023-03-28T08:57:06.296Z,63.42
2023-03-28T08:58:06.164Z,63.62
2023-03-28T08:59:06.190Z,64.03
2023-03-28T09:00:06.167Z,63.44
2023-03-28T09:01:06.190Z,63.89
2023-03-28T09:02:08.126Z,62.96
2023-03-28T09:03:06.760Z,60.60
2023-03-28T09:04:06.332Z,62.01
2023-03-28T09:05:21.818Z,62.52
2023-03-28T09:06:06.103Z,62.11
2023-03-28T09:07:06.104Z,62.41
2023-03-28T09:08:06.225Z,62.24
2023-03-28T09:09:06.185Z,62.48
2023-03-28T09:10:06.054Z,63.84
2023-03-28T09:11:06.023Z,63.22
2023-03-28T09:12:06.040Z,60.42
2023-03-28T09:13:06.023Z,60.31
2023-03-28T09:14:06.062Z,60.73
2023-03-28T09:15:06.009Z,60.70
2023-03-28T09:16:06.342Z,59.26
2023-03-28T09:17:05.956Z,59.23
2023-03-28T09:18:06.023Z,59.44
2023-03-28T09:19:05.944Z,60.98
2023-03-28T09:20:05.990Z,61.42
2023-03-28T09:21:05.917Z,61.44
2023-03-28T09:22:15.254Z,61.68
2023-03-28T09:23:05.883Z,62.81
2023-03-28T09:24:05.886Z,63.32
2023-03-28T09:25:05.897Z,62.60
2023-03-28T09:26:05.979Z,61.44
2023-03-28T09:27:06.515Z,61.35
2023-03-28T09:28:05.866Z,60.63
2023-03-28T09:29:05.833Z,59.77
2023-03-28T09:30:05.848Z,57.82
2023-03-28T09:31:05.859Z,58.92
2023-03-28T09:32:05.856Z,59.13
2023-03-28T09:33:05.952Z,58.41
2023-03-28T09:34:05.846Z,58.18
2023-03-28T09:35:06.063Z,56.54
2023-03-28T09:36:05.817Z,55.00
2023-03-28T09:37:05.788Z,54.08
2023-03-28T09:38:05.800Z,53.97
2023-03-28T09:39:05.726Z,54.49
2023-03-28T09:40:05.732Z,54.46
2023-03-28T09:41:05.707Z,50.95
2023-03-28T09:42:05.759Z,51.34
2023-03-28T09:43:05.745Z,52.23
2023-03-28T09:44:05.746Z,51.98
2023-03-28T09:45:05.706Z,51.47
2023-03-28T09:46:05.756Z,52.54
2023-03-28T09:47:06.008Z,52.41
2023-03-28T09:48:05.846Z,54.64
2023-03-28T09:49:05.611Z,55.66
2023-03-28T09:50:16.219Z,56.62
2023-03-28T09:51:05.729Z,57.67
2023-03-28T09:52:05.700Z,57.44
2023-03-28T09:53:05.583Z,55.98
2023-03-28T09:54:05.599Z,56.87
2023-03-28T09:55:05.574Z,56.10
2023-03-28T09:56:05.605Z,54.82
2023-03-28T09:57:05.593Z,53.52
2023-03-28T09:58:05.559Z,51.42
2023-03-28T09:59:05.534Z,51.81
2023-03-28T10:00:05.622Z,47.60
2023-03-28T10:01:05.550Z,46.29
2023-03-28T10:02:05.547Z,48.17
2023-03-28T10:03:05.588Z,47.25
2023-03-28T10:04:05.483Z,47.17
2023-03-28T10:05:06.396Z,45.33
2023-03-28T10:06:05.435Z,47.31
2023-03-28T10:07:05.416Z,48.26
2023-03-28T10:08:05.435Z,49.10
2023-03-28T10:09:05.411Z,49.95
2023-03-28T10:10:05.377Z,51.69
2023-03-28T10:11:05.408Z,51.90
2023-03-28T10:12:05.689Z,52.54
2023-03-28T10:13:05.366Z,54.64
2023-03-28T10:14:05.388Z,56.41
2023-03-28T10:15:05.342Z,56.82
2023-03-28T10:16:05.447Z,56.72
2023-03-28T10:17:05.396Z,56.93
2023-03-28T10:18:05.370Z,57.03
2023-03-28T10:19:05.663Z,56.38
2023-03-28T10:20:05.359Z,55.85
2023-03-28T10:21:05.311Z,55.23
2023-03-28T10:22:05.292Z,54.08
2023-03-28T10:23:05.336Z,52.66
2023-03-28T10:24:05.247Z,53.08
2023-03-28T10:25:05.242Z,53.38
2023-03-28T10:26:05.262Z,52.10
2023-03-28T10:27:05.257Z,52.20
2023-03-28T10:28:05.293Z,52.31
2023-03-28T10:29:05.252Z,51.54
2023-03-28T10:30:05.213Z,48.60
2023-03-28T10:31:05.340Z,48.66
2023-03-28T10:32:05.718Z,47.61
2023-03-28T10:33:05.253Z,46.55
2023-03-28T10:34:05.132Z,45.94
2023-03-28T10:35:05.556Z,46.67
2023-03-28T10:36:05.253Z,47.52
2023-03-28T10:37:05.121Z,46.78
2023-03-28T10:38:05.219Z,46.19
2023-03-28T10:39:05.120Z,46.99
2023-03-28T10:40:05.267Z,48.11
2023-03-28T10:41:05.288Z,48.38
2023-03-28T10:42:05.198Z,48.46
2023-03-28T10:43:05.106Z,47.35
2023-03-28T10:44:05.329Z,47.97
2023-03-28T10:45:05.148Z,47.85
2023-03-28T10:46:05.081Z,48.25
2023-03-28T10:47:05.001Z,48.66
2023-03-28T10:48:05.122Z,48.15
2023-03-28T10:49:05.064Z,48.02
2023-03-28T10:50:05.055Z,47.13
2023-03-28T10:51:04.961Z,47.05
2023-03-28T10:52:05.687Z,47.44
2023-03-28T10:53:04.934Z,46.56
2023-03-28T10:54:04.914Z,48.81
2023-03-28T10:55:04.929Z,48.99
2023-03-28T10:56:05.220Z,48.66
2023-03-28T10:57:04.916Z,48.33
2023-03-28T10:58:04.868Z,48.35
2023-03-28T10:59:04.870Z,48.23
2023-03-28T11:00:04.970Z,47.13
2023-03-28T11:01:05.020Z,46.62
2023-03-28T11:02:04.958Z,47.44
2023-03-28T11:03:04.890Z,47.85
2023-03-28T11:04:04.903Z,48.13
2023-03-28T11:05:04.801Z,46.47
2023-03-28T11:06:10.033Z,46.16
2023-03-28T11:07:04.803Z,46.80
2023-03-28T11:08:04.842Z,47.15
2023-03-28T11:09:05.044Z,48.40
2023-03-28T11:10:04.811Z,48.09
2023-03-28T11:11:04.884Z,48.81
2023-03-28T11:12:05.534Z,49.01
2023-03-28T11:13:05.064Z,50.57
2023-03-28T11:14:04.846Z,51.08
2023-03-28T11:15:04.775Z,51.21
2023-03-28T11:16:05.079Z,51.31
2023-03-28T11:17:04.721Z,49.67
2023-03-28T11:18:04.725Z,47.85
2023-03-28T11:19:04.693Z,49.35
2023-03-28T11:20:04.842Z,50.79
2023-03-28T11:21:04.684Z,50.71
2023-03-28T11:22:04.666Z,50.63
2023-03-28T11:23:06.214Z,51.45
2023-03-28T11:24:04.597Z,52.38
2023-03-28T11:25:04.624Z,53.72
2023-03-28T11:26:04.744Z,53.61
2023-03-28T11:27:14.925Z,53.12
2023-03-28T11:28:04.558Z,53.23
2023-03-28T11:29:04.866Z,52.53
2023-03-28T11:30:04.543Z,54.00
2023-03-28T11:31:04.588Z,54.49
2023-03-28T11:32:04.624Z,54.79
2023-03-28T11:33:04.553Z,54.90
2023-03-28T11:34:04.543Z,54.77
2023-03-28T11:35:04.481Z,54.69
2023-03-28T11:36:04.830Z,54.17
2023-03-28T11:37:04.541Z,54.28
2023-03-28T11:38:04.680Z,54.72
2023-03-28T11:39:04.540Z,55.54
2023-03-28T11:40:06.521Z,54.51
2023-03-28T11:41:04.690Z,54.41
2023-03-28T11:42:04.427Z,54.30
2023-03-28T11:43:04.461Z,54.28
2023-03-28T11:44:04.543Z,53.74
2023-03-28T11:45:04.478Z,52.79
2023-03-28T11:46:04.423Z,52.07
2023-03-28T11:47:04.382Z,51.56
2023-03-28T11:48:04.678Z,51.58
2023-03-28T11:49:04.381Z,51.92
2023-03-28T11:50:04.363Z,52.12
2023-03-28T11:51:04.377Z,52.64
2023-03-28T11:52:04.310Z,53.05
2023-03-28T11:53:04.409Z,52.71
2023-03-28T11:54:04.299Z,51.07
2023-03-28T11:55:04.321Z,51.89
2023-03-28T11:56:04.339Z,51.61
2023-03-28T11:57:04.306Z,52.43
2023-03-28T11:58:04.257Z,52.45
2023-03-28T11:59:04.506Z,53.89
2023-03-28T12:00:04.262Z,54.82
2023-03-28T12:01:04.626Z,55.02
2023-03-28T12:02:04.352Z,55.26
2023-03-28T12:03:04.474Z,56.29
2023-03-28T12:04:04.276Z,56.80
2023-03-28T12:05:04.259Z,56.80
2023-03-28T12:06:08.400Z,55.98
2023-03-28T12:07:04.152Z,56.49
2023-03-28T12:08:04.265Z,56.80
2023-03-28T12:09:04.137Z,56.59
2023-03-28T12:10:04.146Z,56.49
2023-03-28T12:11:04.100Z,56.70
2023-03-28T12:12:04.093Z,56.18
2023-03-28T12:13:04.145Z,55.66
2023-03-28T12:14:11.461Z,55.66
2023-03-28T12:15:04.070Z,55.43
2023-03-28T12:16:04.172Z,54.59
2023-03-28T12:17:04.114Z,54.36
2023-03-28T12:18:04.096Z,53.12
2023-03-28T12:19:04.495Z,51.68
2023-03-28T12:20:04.102Z,51.07
2023-03-28T12:21:03.995Z,50.14
2023-03-28T12:22:04.004Z,50.96
2023-03-28T12:23:03.998Z,51.99
2023-03-28T12:24:03.999Z,52.09
2023-03-28T12:25:03.960Z,52.51
2023-03-28T12:26:04.247Z,52.30
2023-03-28T12:27:03.925Z,52.09
2023-03-28T12:28:03.971Z,51.87
2023-03-28T12:29:03.962Z,52.17
2023-03-28T12:30:03.956Z,51.25
2023-03-28T12:31:04.214Z,51.43
2023-03-28T12:32:03.964Z,50.10
2023-03-28T12:33:04.217Z,48.94
2023-03-28T12:34:03.935Z,48.13
2023-03-28T12:35:03.926Z,47.71
2023-03-28T12:36:04.501Z,47.79
2023-03-28T12:37:03.852Z,47.18
2023-03-28T12:38:03.887Z,46.95
2023-03-28T12:39:03.804Z,47.26
2023-03-28T12:40:03.808Z,47.01
2023-03-28T12:41:03.782Z,46.70
2023-03-28T12:42:03.779Z,46.07
2023-03-28T12:43:03.780Z,46.48
2023-03-28T12:44:04.090Z,46.66
2023-03-28T12:45:03.791Z,46.44
2023-03-28T12:46:04.151Z,45.61
2023-03-28T12:47:03.704Z,46.89
2023-03-28T12:48:03.970Z,46.97
2023-03-28T12:49:03.725Z,45.84
2023-03-28T12:50:03.755Z,46.35
2023-03-28T12:51:03.672Z,46.97
2023-03-28T12:52:03.749Z,46.17